Flight Track Log - Related Links

Times and Time Zones

All times are in EDT time to prevent confusion due to time zone crossing. See the DAL1981 flight status page for this flight to view local times or setup timezone preferences in your user account.

Time Position Orientation Groundspeed Altitude Reporting Facility
EDT Latitude Longitude Course Direction KTS MPH feet Rate Location/Type
Thu 04:18:52 PM 38.7167 -121.5833 71° East 160 184 1,500  Level Northern Cal TRACON
Thu 04:19:46 PM 38.7500 -121.5333 49° Northeast 227 261 2,800 2,263 Climbing Northern Cal TRACON
Thu 04:20:46 PM 38.7500 -121.4500 90° East 269 310 5,800 3,050 Climbing Northern Cal TRACON
Thu 04:21:00 PM 38.8715 -121.1151 78° East  Level Estimated
Thu 04:21:46 PM 38.7500 -121.3500 90° East 294 338 8,900  Level Northern Cal TRACON
Thu 04:22:00 PM 38.9298 -120.9560 67° East  Level Estimated
Thu 04:22:52 PM 38.7500 -121.2333 90° East 326 375 11,000  Level Northern Cal TRACON
Thu 04:23:00 PM 38.9879 -120.7967 72° East  Level Estimated
Thu 04:23:59 PM 38.7417 -121.0994 95° East 363 418 13,000  Level Oakland Center
Thu 04:24:00 PM 39.0457 -120.6371 71° East  Level Estimated
Thu 04:25:01 PM 38.7381 -120.9589 92° East 387 445 15,600  Level Oakland Center
Thu 04:26:02 PM 38.7344 -120.8153 92° East 399 459 18,200 2,439 Climbing Oakland Center
Thu 04:27:04 PM 38.7297 -120.6364 92° East 413 475 20,600 2,146 Climbing Oakland Center
Thu 04:28:05 PM 38.7253 -120.4817 92° East 428 493 22,600 1,707 Climbing Oakland Center
Thu 04:29:07 PM 38.7186 -120.3228 93° East 441 507 24,100 1,366 Climbing Oakland Center
Thu 04:30:08 PM 38.7261 -120.1597 87° East 456 525 25,400 1,220 Climbing Oakland Center
Thu 04:31:10 PM 38.8119 -120.0447 46° Northeast 448 516 26,600 1,122 Climbing Oakland Center
Thu 04:32:11 PM 38.9067 -119.9422 40° Northeast 446 513 27,700 1,122 Climbing Oakland Center
Thu 04:33:13 PM 39.0153 -119.8219 41° Northeast 460 529 28,900 1,415 Climbing Oakland Center
Thu 04:34:14 PM 39.1158 -119.7142 40° Northeast 466 536 30,600 1,317 Climbing Oakland Center
Thu 04:35:16 PM 39.2125 -119.6061 41° Northeast 460 529 31,600 1,073 Climbing Oakland Center
Thu 04:36:17 PM 39.3103 -119.4967 41° Northeast 462 532 32,800 1,122 Climbing Oakland Center
Thu 04:37:19 PM 39.4089 -119.3878 40° Northeast 465 535 33,900 829 Climbing Oakland Center
Thu 04:38:20 PM 39.5056 -119.2781 41° Northeast 460 529 34,500 537 Climbing Oakland Center
Thu 04:39:22 PM 39.6064 -119.1672 40° Northeast 467 537 35,000 488 Climbing Oakland Center
Thu 04:40:23 PM 39.7089 -119.0519 41° Northeast 478 550 35,500 537 Climbing Oakland Center
Thu 04:41:25 PM 39.8119 -118.9356 41° Northeast 483 556 36,100 634 Climbing Oakland Center
Thu 04:42:26 PM 39.9133 -118.8194 41° Northeast 483 556 36,800 439 Climbing Oakland Center
Thu 04:43:28 PM 40.0356 -118.6800 41° Northeast 484 557 37,000 98 Climbing Oakland Center
Thu 04:44:29 PM 40.1294 -118.5506 46° Northeast 498 573 37,000  Level Oakland Center
Thu 04:45:31 PM 40.1781 -118.3828 69° East 493 567 37,000  Level Oakland Center
Thu 04:46:32 PM 40.2253 -118.2117 70° East 492 566 37,000  Level Salt Lake Center
Thu 04:47:33 PM 40.2692 -118.0503 70° East 492 566 37,000  Level Salt Lake Center
Thu 04:48:35 PM 40.3203 -117.8614 70° East 491 565 37,000  Level Salt Lake Center
Thu 04:49:37 PM 40.3647 -117.6989 70° East 494 568 37,000  Level Salt Lake Center
Thu 04:50:39 PM 40.4081 -117.5347 71° East 497 572 37,000  Level Salt Lake Center
Thu 04:51:41 PM 40.4594 -117.3422 71° East 499 574 37,000  Level Salt Lake Center
Thu 04:52:42 PM 40.5033 -117.1747 71° East 503 579 37,000  Level Salt Lake Center
Thu 04:53:44 PM 40.5547 -116.9772 71° East 503 579 37,000  Level Salt Lake Center
Thu 04:54:46 PM 40.6100 -116.8147 66° East 500 575 37,000  Level Salt Lake Center
Thu 04:55:48 PM 40.6731 -116.6564 62° Northeast 504 580 37,000  Level Salt Lake Center
Thu 04:56:50 PM 40.7442 -116.4728 63° Northeast 504 580 37,000  Level Salt Lake Center
Thu 04:57:51 PM 40.8056 -116.3139 63° Northeast 504 580 37,000  Level Salt Lake Center
Thu 04:58:53 PM 40.8669 -116.1550 63° Northeast 506 582 37,000  Level Salt Lake Center
Thu 04:59:55 PM 40.9378 -115.9711 63° Northeast 504 580 37,000  Level Salt Lake Center
Thu 05:00:57 PM 40.9978 -115.8142 63° Northeast 502 578 37,000  Level Salt Lake Center
Thu 05:01:59 PM 41.0667 -115.6306 63° Northeast 499 574 37,000  Level Salt Lake Center
Thu 05:03:01 PM 41.1261 -115.4711 64° Northeast 500 575 37,000  Level Salt Lake Center
Thu 05:04:03 PM 41.1942 -115.2850 64° Northeast 503 579 37,000  Level Salt Lake Center
Thu 05:05:04 PM 41.2544 -115.1264 63° Northeast 503 579 37,000  Level Salt Lake Center
Thu 05:06:06 PM 41.3236 -114.9381 64° Northeast 505 581 37,000  Level Salt Lake Center
Thu 05:07:08 PM 41.3814 -114.7778 64° Northeast 506 582 37,000  Level Salt Lake Center
Thu 05:08:10 PM 41.4442 -114.6092 64° Northeast 507 583 37,000  Level Salt Lake Center
Thu 05:09:12 PM 41.5050 -114.4381 65° Northeast 510 587 37,000  Level Salt Lake Center
Thu 05:10:14 PM 41.5675 -114.2661 64° Northeast 514 592 37,000  Level Salt Lake Center
Thu 05:11:15 PM 41.6306 -114.0908 64° Northeast 522 601 37,000  Level Salt Lake Center
Thu 05:12:17 PM 41.7044 -113.8808 65° Northeast 521 600 37,000  Level Salt Lake Center
Thu 05:13:19 PM 41.7683 -113.7039 64° Northeast 526 605 37,000  Level Salt Lake Center
Thu 05:14:21 PM 41.8308 -113.5247 65° Northeast 530 610 37,000  Level Salt Lake Center
Thu 05:15:23 PM 41.8931 -113.3458 65° Northeast 530 610 37,000  Level Salt Lake Center
Thu 05:16:25 PM 41.9569 -113.1639 65° Northeast 536 617 37,000  Level Salt Lake Center
Thu 05:17:27 PM 42.0192 -112.9792 66° East 540 621 37,000  Level Salt Lake Center
Thu 05:18:29 PM 42.0950 -112.7572 65° Northeast 544 626 37,000  Level Salt Lake Center
Thu 05:19:31 PM 42.1583 -112.5697 65° Northeast 546 628 37,000  Level Salt Lake Center
Thu 05:20:33 PM 42.2217 -112.3814 66° East 550 633 37,000  Level Salt Lake Center
Thu 05:21:35 PM 42.2836 -112.1939 66° East 548 631 37,000  Level Salt Lake Center
Thu 05:22:37 PM 42.3442 -112.0061 66° East 546 628 37,000  Level Salt Lake Center
Thu 05:23:38 PM 42.4047 -111.8186 66° East 545 627 37,000  Level Salt Lake Center
Thu 05:24:40 PM 42.4631 -111.6306 67° East 543 625 37,000  Level Salt Lake Center
Thu 05:25:42 PM 42.5358 -111.4072 66° East 541 623 37,000  Level Salt Lake Center
Thu 05:26:44 PM 42.5942 -111.2206 67° East 539 620 37,000  Level Salt Lake Center
Thu 05:27:46 PM 42.6539 -111.0356 66° East 537 618 37,000  Level Salt Lake Center
Thu 05:28:49 PM 42.7114 -110.8481 67° East 537 618 37,000  Level Salt Lake Center
Thu 05:29:51 PM 42.7767 -110.6406 67° East 543 625 37,000  Level Salt Lake Center
Thu 05:30:53 PM 42.8303 -110.4639 67° East 534 615 37,000  Level Salt Lake Center
Thu 05:31:55 PM 42.8947 -110.2519 67° East 541 623 37,000  Level Salt Lake Center
Thu 05:32:57 PM 42.9494 -110.0689 68° East 545 627 37,000  Level Salt Lake Center
Thu 05:33:59 PM 43.0153 -109.8497 68° East 548 631 37,000  Level Salt Lake Center
Thu 05:35:02 PM 43.0747 -109.6503 68° East 546 628 37,000  Level Salt Lake Center
Thu 05:36:03 PM 43.1314 -109.4583 68° East 546 628 37,000  Level Salt Lake Center
Thu 05:37:05 PM 43.1875 -109.2642 68° East 549 632 37,000  Level Salt Lake Center
Thu 05:38:07 PM 43.2433 -109.0719 68° East 547 629 37,000  Level Salt Lake Center
Thu 05:39:09 PM 43.2992 -108.8789 68° East 547 629 37,000  Level Salt Lake Center
Thu 05:40:11 PM 43.3544 -108.6831 69° East 551 634 37,000  Level Salt Lake Center
Thu 05:41:13 PM 43.4217 -108.4508 68° East 549 632 37,000  Level Salt Lake Center
Thu 05:42:15 PM 43.4764 -108.2561 69° East 548 631 37,000  Level Salt Lake Center
Thu 05:43:17 PM 43.5342 -108.0617 68° East 551 634 37,000  Level Salt Lake Center
Thu 05:44:19 PM 43.5906 -107.8667 68° East 551 634 37,000  Level Salt Lake Center
Thu 05:45:21 PM 43.6481 -107.6728 68° East 550 633 37,000  Level Salt Lake Center
Thu 05:46:23 PM 43.7153 -107.4392 68° East 549 632 37,000  Level Salt Lake Center
Thu 05:47:25 PM 43.7689 -107.2494 69° East 538 619 37,000  Level Salt Lake Center
Thu 05:48:27 PM 43.8247 -107.0550 68° East 546 628 37,000  Level Salt Lake Center
Thu 05:49:29 PM 43.8847 -106.8428 69° East 545 627 37,000  Level Salt Lake Center
Thu 05:50:08 PM 43.9219 -106.7139 68° East 547 629 37,000  Level Denver Center
Thu 05:51:10 PM 43.9750 -106.5242 69° East 550 633 37,000  Level Denver Center
Thu 05:52:12 PM 44.0350 -106.3039 69° East 546 628 37,000  Level Denver Center
Thu 05:53:14 PM 44.0814 -106.1136 71° East 543 625 37,000  Level Denver Center
Thu 05:54:17 PM 44.1369 -105.8911 71° East 544 626 37,000  Level Denver Center
Thu 05:55:19 PM 44.1833 -105.7019 71° East 542 624 37,000  Level Denver Center
Thu 05:56:21 PM 44.2383 -105.4794 71° East 542 624 37,000  Level Denver Center
Thu 05:57:23 PM 44.2839 -105.2881 72° East 542 624 37,000  Level Denver Center
Thu 05:58:25 PM 44.3292 -105.0972 72° East 542 624 37,000  Level Denver Center
Thu 05:59:27 PM 44.3839 -104.8733 71° East 543 625 37,000  Level Denver Center
Thu 06:00:29 PM 44.4275 -104.6817 72° East 543 625 37,000  Level Denver Center
Thu 06:01:31 PM 44.4803 -104.4583 72° East 540 621 37,000  Level Denver Center
Thu 06:02:33 PM 44.5247 -104.2656 72° East 542 624 37,000  Level Denver Center
Thu 06:03:35 PM 44.5767 -104.0400 72° East 543 625 37,000  Level Denver Center
Thu 06:04:37 PM 44.6214 -103.8486 72° East 540 621 37,000  Level Denver Center
Thu 06:05:39 PM 44.6708 -103.6203 73° East 546 628 37,000  Level Denver Center
Thu 06:06:41 PM 44.7147 -103.4286 72° East 545 627 37,000  Level Denver Center
Thu 06:07:43 PM 44.7594 -103.2247 73° East 546 628 37,000  Level Denver Center
Thu 06:08:45 PM 44.8025 -103.0219 73° East 542 624 37,000  Level Denver Center
Thu 06:09:47 PM 44.8553 -102.7797 73° East 540 621 37,000  Level Denver Center
Thu 06:10:50 PM 44.8992 -102.5794 73° East 537 618 37,000  Level Denver Center
Thu 06:11:52 PM 44.9411 -102.3789 73° East 534 615 37,000  Level Denver Center
Thu 06:12:54 PM 44.9842 -102.1769 73° East 536 617 37,000  Level Denver Center
Thu 06:13:56 PM 45.0256 -101.9736 74° East 539 620 37,000  Level Denver Center
Thu 06:14:58 PM 45.0669 -101.7714 74° East 536 617 37,000  Level Denver Center
Thu 06:16:00 PM 45.0683 -101.5647 89° East 539 620 37,000  Level Denver Center
Thu 06:17:14 PM 45.0458 -101.2814 96° East 524 603 37,000  Level Denver Center
Thu 06:18:16 PM 45.0325 -101.0781 95° East 521 600 37,000  Level Denver Center
Thu 06:19:31 PM 45.0208 -100.8350 94° East 518 596 37,000  Level Minneapolis Center
Thu 06:20:34 PM 45.0047 -100.6339 96° East 516 594 37,000  Level Minneapolis Center
Thu 06:21:36 PM 44.9911 -100.4356 95° East 513 590 37,000  Level Minneapolis Center
Thu 06:22:38 PM 44.9719 -100.2042 97° East 502 578 37,000  Level Minneapolis Center
Thu 06:23:40 PM 44.9550 -100.0128 97° East 502 578 37,000  Level Minneapolis Center
Thu 06:24:42 PM 44.9414 -99.8169 96° East 517 595 37,000  Level Minneapolis Center
Thu 06:25:44 PM 44.9225 -99.5756 96° East 521 600 37,000  Level Minneapolis Center
Thu 06:26:46 PM 44.9058 -99.3742 97° East 520 598 37,000  Level Minneapolis Center
Thu 06:27:49 PM 44.8886 -99.1719 97° East 521 600 37,000  Level Minneapolis Center
Thu 06:28:51 PM 44.8714 -98.9708 97° East 519 597 37,000  Level Minneapolis Center
Thu 06:29:53 PM 44.8536 -98.7708 97° East 517 595 37,000  Level Minneapolis Center
Thu 06:30:55 PM 44.8353 -98.5703 97° East 515 593 37,000  Level Minneapolis Center
Thu 06:31:57 PM 44.8153 -98.3497 97° East 514 592 37,000  Level Minneapolis Center
Thu 06:32:59 PM 44.7969 -98.1517 97° East 512 589 37,000  Level Minneapolis Center
Thu 06:34:01 PM 44.7786 -97.9578 98° East 505 581 37,000  Level Minneapolis Center
Thu 06:35:03 PM 44.7556 -97.7283 98° East 498 573 37,000  Level Minneapolis Center
Thu 06:36:05 PM 44.7353 -97.5386 98° East 493 567 37,000 -194 Level Minneapolis Center
Thu 06:37:07 PM 44.7158 -97.3475 98° East 494 568 36,600 -629 Descending Minneapolis Center
Thu 06:38:09 PM 44.6967 -97.1569 98° East 493 567 35,700 -912 Descending Minneapolis Center
Thu 06:39:12 PM 44.6764 -96.9664 98° East 493 567 34,700 -912 Descending Minneapolis Center
Thu 06:40:14 PM 44.6375 -96.7875 107° East 481 554 33,800 -823 Descending Minneapolis Center
Thu 06:41:16 PM 44.5394 -96.6189 129° Southeast 467 537 33,000 -387 Descending Minneapolis Center
Thu 06:42:18 PM 44.4578 -96.4786 129° Southeast 466 536 33,000  Level Minneapolis Center
Thu 06:43:20 PM 44.3967 -96.3178 118° Southeast 486 559 33,000 -532 Level Minneapolis Center
Thu 06:44:22 PM 44.4069 -96.1222 86° East 496 571 31,900 -1,113 Descending Minneapolis Center
Thu 06:45:24 PM 44.4192 -95.9322 85° East 488 562 30,700 -1,452 Descending Minneapolis Center
Thu 06:46:26 PM 44.4297 -95.7519 85° East 468 539 28,900 -1,645 Descending Minneapolis Center
Thu 06:47:28 PM 44.4406 -95.5744 85° East 459 528 27,300 -1,452 Descending Minneapolis Center
Thu 06:48:30 PM 44.4517 -95.4008 85° East 451 519 25,900 -1,452 Descending Minneapolis Center
Thu 06:49:32 PM 44.4631 -95.1992 85° East 437 503 24,300 -1,728 Descending Minneapolis Center
Thu 06:50:35 PM 44.4872 -95.0403 78° East 421 484 22,300 -1,872 Descending Minneapolis Center
Thu 06:51:37 PM 44.5253 -94.8889 71° East 414 476 20,400 -1,839 Descending Minneapolis Center
Thu 06:52:39 PM 44.5597 -94.7386 72° East 409 471 18,500 -1,984 Descending Minneapolis Center
Thu 06:53:41 PM 44.5958 -94.5811 72° East 395 455 16,300 -1,887 Descending Minneapolis Center
Thu 06:54:43 PM 44.6275 -94.4419 72° East 376 433 14,600 -1,694 Descending Minneapolis Center
Thu 06:55:45 PM 44.6575 -94.3119 72° East 353 406 12,800 -1,597 Descending Minneapolis Center
Thu 06:56:47 PM 44.6858 -94.1886 72° East 331 381 11,300 -1,129 Descending Minneapolis Center
Thu 06:58:51 PM 44.7428 -93.9347 72° East 292 336 9,300 -723 Descending Minneapolis Center
Thu 06:59:58 PM 44.7647 -93.8342 73° East 270 311 9,000 -140 Descending Minneapolis Center
Thu 07:01:00 PM 44.7875 -93.7344 72° East 269 310 9,000  Level Minneapolis Center
Thu 07:02:02 PM 44.7867 -93.6331 91° East 260 299 9,000  Level Minneapolis Center
Thu 07:03:04 PM 44.7567 -93.5239 111° Southeast 251 289 9,000 -194 Level Minneapolis Center
Thu 07:04:06 PM 44.7583 -93.4269 89° East 247 284 8,600 -484 Descending Minneapolis Center
Thu 07:05:08 PM 44.8028 -93.3681 43° Northeast 245 282 8,000 -726 Descending Minneapolis Center
Thu 07:06:10 PM 44.8467 -93.4275 316° Northwest 224 258 7,100 -968 Descending Minneapolis Center
Thu 07:07:12 PM 44.8775 -93.5003 301° West 216 249 6,000 -624 Descending Minneapolis Center
Thu 07:08:15 PM 44.9100 -93.5731 302° West 219 252 5,800 -432 Descending Minneapolis Center
Thu 07:09:17 PM 44.9489 -93.6594 302° West 219 252 5,100 -387 Descending Minneapolis Center
Thu 07:10:19 PM 44.9994 -93.6739 349° North 228 262 5,000 -48 Descending Minneapolis Center
Thu 07:11:21 PM 45.0169 -93.6122 68° East 194 223 5,000  Level Minneapolis Center
Thu 07:12:23 PM 44.9986 -93.5492 112° Southeast 174 200 5,000 -145 Level Minneapolis Center
Thu 07:13:25 PM 44.9806 -93.4864 112° Southeast 173 199 4,700 -484 Descending Minneapolis Center
Thu 07:14:27 PM 44.9653 -93.4342 112° Southeast 147 169 4,000 -774 Descending Minneapolis Center
Thu 07:15:29 PM 44.9503 -93.3781 111° Southeast 130 150 3,100 -774 Descending Minneapolis Center
Thu 07:16:31 PM 44.9311 -93.3342 122° Southeast 130 150 2,400 -677 Descending Minneapolis Center
Thu 07:17:33 PM 44.9103 -93.2856 121° Southeast 142 163 1,700 -677 Descending Minneapolis Center

Login

Don't have an account? Register now (free) for customized features, flight alerts, and more!